sensor_id;sensor_type;location;lat;lon;timestamp;pressure;altitude;pressure_sealevel;temperature;humidity
31225;BME280;17847;31.524;74.366;2024-01-06T00:01:32;99373.28;;;7.86;nan
31225;BME280;17847;31.524;74.366;2024-01-06T00:04:02;99366.06;;;7.96;nan
31225;BME280;17847;31.524;74.366;2024-01-06T00:06:31;99371.66;;;8.01;nan
31225;BME280;17847;31.524;74.366;2024-01-06T00:09:03;99371.47;;;7.87;nan
31225;BME280;17847;31.524;74.366;2024-01-06T00:11:32;99362.41;;;7.89;nan
31225;BME280;17847;31.524;74.366;2024-01-06T00:14:02;99366.88;;;7.97;nan
31225;BME280;17847;31.524;74.366;2024-01-06T00:16:31;99364.72;;;7.92;nan
31225;BME280;17847;31.524;74.366;2024-01-06T00:19:01;99366.34;;;7.85;nan
31225;BME280;17847;31.524;74.366;2024-01-06T00:21:31;99377.88;;;7.84;nan
31225;BME280;17847;31.524;74.366;2024-01-06T00:24:00;99376.78;;;7.95;nan
31225;BME280;17847;31.524;74.366;2024-01-06T00:26:30;99380.78;;;7.73;nan
31225;BME280;17847;31.524;74.366;2024-01-06T00:28:59;99388.91;;;7.88;nan
31225;BME280;17847;31.524;74.366;2024-01-06T00:31:28;99392.22;;;7.82;nan
31225;BME280;17847;31.524;74.366;2024-01-06T00:33:58;99397.38;;;7.99;nan
31225;BME280;17847;31.524;74.366;2024-01-06T00:36:28;99402.81;;;7.98;nan
31225;BME280;17847;31.524;74.366;2024-01-06T00:38:57;99404.91;;;7.86;nan
31225;BME280;17847;31.524;74.366;2024-01-06T00:41:27;99408.66;;;7.76;nan
31225;BME280;17847;31.524;74.366;2024-01-06T00:43:56;99405.50;;;7.72;nan
31225;BME280;17847;31.524;74.366;2024-01-06T00:46:26;99406.88;;;7.84;nan
31225;BME280;17847;31.524;74.366;2024-01-06T00:48:56;99409.75;;;7.99;nan
31225;BME280;17847;31.524;74.366;2024-01-06T00:51:25;99417.44;;;7.92;nan
31225;BME280;17847;31.524;74.366;2024-01-06T00:53:55;99421.81;;;7.76;nan
31225;BME280;17847;31.524;74.366;2024-01-06T00:56:25;99420.31;;;7.99;nan
31225;BME280;17847;31.524;74.366;2024-01-06T00:58:56;99415.94;;;7.82;nan
31225;BME280;17847;31.524;74.366;2024-01-06T01:01:25;99420.03;;;7.76;nan
31225;BME280;17847;31.524;74.366;2024-01-06T01:03:54;99419.47;;;7.64;nan
31225;BME280;17847;31.524;74.366;2024-01-06T01:06:24;99421.19;;;7.74;nan
31225;BME280;17847;31.524;74.366;2024-01-06T01:08:53;99417.72;;;7.73;nan
31225;BME280;17847;31.524;74.366;2024-01-06T01:11:23;99424.91;;;7.63;nan
31225;BME280;17847;31.524;74.366;2024-01-06T01:13:52;99425.69;;;7.89;nan
31225;BME280;17847;31.524;74.366;2024-01-06T01:16:22;99427.75;;;7.70;nan
31225;BME280;17847;31.524;74.366;2024-01-06T01:18:52;99435.75;;;7.60;nan
31225;BME280;17847;31.524;74.366;2024-01-06T01:21:22;99436.94;;;7.65;nan
31225;BME280;17847;31.524;74.366;2024-01-06T01:23:52;99432.84;;;7.71;nan
31225;BME280;17847;31.524;74.366;2024-01-06T01:26:22;99441.66;;;7.88;nan
31225;BME280;17847;31.524;74.366;2024-01-06T01:28:51;99451.16;;;8.06;nan
31225;BME280;17847;31.524;74.366;2024-01-06T01:31:21;99452.63;;;8.01;nan
31225;BME280;17847;31.524;74.366;2024-01-06T01:33:51;99458.50;;;7.87;nan
31225;BME280;17847;31.524;74.366;2024-01-06T01:36:20;99457.69;;;7.94;nan
31225;BME280;17847;31.524;74.366;2024-01-06T01:38:50;99458.13;;;8.16;nan
31225;BME280;17847;31.524;74.366;2024-01-06T01:41:20;99467.63;;;8.00;nan
31225;BME280;17847;31.524;74.366;2024-01-06T01:43:49;99467.09;;;7.97;nan
31225;BME280;17847;31.524;74.366;2024-01-06T01:46:28;99471.81;;;7.85;nan
31225;BME280;17847;31.524;74.366;2024-01-06T01:49:00;99477.59;;;7.89;nan
31225;BME280;17847;31.524;74.366;2024-01-06T01:51:33;99468.88;;;7.88;nan
31225;BME280;17847;31.524;74.366;2024-01-06T01:54:05;99469.47;;;8.08;nan
31225;BME280;17847;31.524;74.366;2024-01-06T01:56:36;99460.47;;;7.93;nan
31225;BME280;17847;31.524;74.366;2024-01-06T01:59:11;99457.28;;;7.81;nan
31225;BME280;17847;31.524;74.366;2024-01-06T02:01:41;99460.13;;;7.88;nan
31225;BME280;17847;31.524;74.366;2024-01-06T02:04:10;99472.53;;;7.95;nan
31225;BME280;17847;31.524;74.366;2024-01-06T02:06:40;99470.47;;;8.15;nan
31225;BME280;17847;31.524;74.366;2024-01-06T02:09:09;99478.47;;;7.97;nan
31225;BME280;17847;31.524;74.366;2024-01-06T02:11:40;99470.19;;;7.92;nan
31225;BME280;17847;31.524;74.366;2024-01-06T02:14:09;99471.72;;;7.95;nan
31225;BME280;17847;31.524;74.366;2024-01-06T02:16:38;99482.72;;;7.90;nan
31225;BME280;17847;31.524;74.366;2024-01-06T02:19:11;99481.09;;;7.97;nan
31225;BME280;17847;31.524;74.366;2024-01-06T02:21:42;99480.28;;;7.97;nan
31225;BME280;17847;31.524;74.366;2024-01-06T02:24:12;99492.38;;;8.07;nan
31225;BME280;17847;31.524;74.366;2024-01-06T02:26:42;99497.56;;;7.91;nan
31225;BME280;17847;31.524;74.366;2024-01-06T02:29:11;99511.34;;;8.11;nan
31225;BME280;17847;31.524;74.366;2024-01-06T02:31:41;99514.56;;;8.23;nan
31225;BME280;17847;31.524;74.366;2024-01-06T02:34:11;99513.63;;;8.06;nan
31225;BME280;17847;31.524;74.366;2024-01-06T02:36:40;99519.91;;;8.05;nan
31225;BME280;17847;31.524;74.366;2024-01-06T02:39:10;99529.78;;;8.03;nan
31225;BME280;17847;31.524;74.366;2024-01-06T02:41:39;99536.72;;;8.04;nan
31225;BME280;17847;31.524;74.366;2024-01-06T02:44:08;99538.16;;;7.98;nan
31225;BME280;17847;31.524;74.366;2024-01-06T02:46:40;99537.75;;;7.85;nan
31225;BME280;17847;31.524;74.366;2024-01-06T02:49:09;99544.25;;;7.73;nan
31225;BME280;17847;31.524;74.366;2024-01-06T02:51:39;99544.53;;;7.70;nan
31225;BME280;17847;31.524;74.366;2024-01-06T02:54:08;99555.88;;;7.62;nan
31225;BME280;17847;31.524;74.366;2024-01-06T02:56:38;99553.00;;;7.74;nan
31225;BME280;17847;31.524;74.366;2024-01-06T02:59:07;99560.69;;;7.67;nan
31225;BME280;17847;31.524;74.366;2024-01-06T03:01:37;99557.97;;;7.77;nan
31225;BME280;17847;31.524;74.366;2024-01-06T03:04:06;99562.97;;;7.88;nan
31225;BME280;17847;31.524;74.366;2024-01-06T03:06:37;99574.47;;;8.04;nan
31225;BME280;17847;31.524;74.366;2024-01-06T03:09:06;99584.44;;;7.93;nan
31225;BME280;17847;31.524;74.366;2024-01-06T03:11:36;99584.66;;;7.99;nan
31225;BME280;17847;31.524;74.366;2024-01-06T03:14:06;99581.19;;;8.25;nan
31225;BME280;17847;31.524;74.366;2024-01-06T03:16:35;99587.41;;;8.41;nan
31225;BME280;17847;31.524;74.366;2024-01-06T03:19:04;99584.34;;;8.28;nan
31225;BME280;17847;31.524;74.366;2024-01-06T03:21:36;99602.44;;;8.23;nan
31225;BME280;17847;31.524;74.366;2024-01-06T03:24:08;99602.63;;;8.22;nan
31225;BME280;17847;31.524;74.366;2024-01-06T03:26:40;99607.31;;;8.10;nan
31225;BME280;17847;31.524;74.366;2024-01-06T03:29:11;99606.75;;;8.24;nan
31225;BME280;17847;31.524;74.366;2024-01-06T03:31:44;99617.06;;;8.09;nan
31225;BME280;17847;31.524;74.366;2024-01-06T03:34:14;99622.66;;;8.14;nan
31225;BME280;17847;31.524;74.366;2024-01-06T03:36:44;99626.06;;;8.50;nan
31225;BME280;17847;31.524;74.366;2024-01-06T03:39:13;99629.97;;;8.38;nan
31225;BME280;17847;31.524;74.366;2024-01-06T03:41:43;99631.13;;;8.36;nan
31225;BME280;17847;31.524;74.366;2024-01-06T03:44:12;99637.84;;;8.12;nan
31225;BME280;17847;31.524;74.366;2024-01-06T03:46:42;99638.81;;;8.11;nan
31225;BME280;17847;31.524;74.366;2024-01-06T03:49:11;99650.09;;;8.39;nan
31225;BME280;17847;31.524;74.366;2024-01-06T03:51:41;99647.94;;;8.17;nan
31225;BME280;17847;31.524;74.366;2024-01-06T03:54:10;99647.09;;;8.17;nan
31225;BME280;17847;31.524;74.366;2024-01-06T03:56:39;99651.69;;;8.14;nan
31225;BME280;17847;31.524;74.366;2024-01-06T03:59:09;99655.59;;;8.28;nan
31225;BME280;17847;31.524;74.366;2024-01-06T04:01:38;99654.75;;;8.28;nan
31225;BME280;17847;31.524;74.366;2024-01-06T04:04:08;99650.13;;;8.22;nan
31225;BME280;17847;31.524;74.366;2024-01-06T04:06:37;99649.38;;;8.11;nan
31225;BME280;17847;31.524;74.366;2024-01-06T04:09:07;99662.34;;;8.23;nan
31225;BME280;17847;31.524;74.366;2024-01-06T04:11:38;99652.75;;;8.22;nan
31225;BME280;17847;31.524;74.366;2024-01-06T04:14:07;99655.00;;;8.34;nan
31225;BME280;17847;31.524;74.366;2024-01-06T04:16:36;99646.84;;;8.28;nan
31225;BME280;17847;31.524;74.366;2024-01-06T04:19:06;99654.31;;;8.32;nan
31225;BME280;17847;31.524;74.366;2024-01-06T04:21:36;99663.81;;;8.43;nan
31225;BME280;17847;31.524;74.366;2024-01-06T04:24:06;99664.97;;;8.40;nan
31225;BME280;17847;31.524;74.366;2024-01-06T04:26:35;99666.03;;;8.55;nan
31225;BME280;17847;31.524;74.366;2024-01-06T04:29:05;99678.75;;;8.34;nan
31225;BME280;17847;31.524;74.366;2024-01-06T04:31:34;99683.91;;;8.36;nan
31225;BME280;17847;31.524;74.366;2024-01-06T04:34:04;99691.44;;;8.31;nan
31225;BME280;17847;31.524;74.366;2024-01-06T04:36:33;99687.66;;;8.59;nan
31225;BME280;17847;31.524;74.366;2024-01-06T04:39:03;99691.81;;;8.62;nan
31225;BME280;17847;31.524;74.366;2024-01-06T04:41:32;99692.28;;;8.57;nan
31225;BME280;17847;31.524;74.366;2024-01-06T04:44:01;99696.75;;;8.56;nan
31225;BME280;17847;31.524;74.366;2024-01-06T04:46:31;99693.31;;;8.38;nan
31225;BME280;17847;31.524;74.366;2024-01-06T04:49:01;99690.63;;;8.56;nan
31225;BME280;17847;31.524;74.366;2024-01-06T04:51:31;99689.28;;;8.52;nan
31225;BME280;17847;31.524;74.366;2024-01-06T04:54:01;99697.88;;;8.80;nan
31225;BME280;17847;31.524;74.366;2024-01-06T04:56:30;99699.88;;;8.86;nan
31225;BME280;17847;31.524;74.366;2024-01-06T04:59:03;99694.91;;;8.83;nan
31225;BME280;17847;31.524;74.366;2024-01-06T05:01:33;99697.28;;;8.68;nan
31225;BME280;17847;31.524;74.366;2024-01-06T05:04:02;99688.75;;;8.74;nan
31225;BME280;17847;31.524;74.366;2024-01-06T05:06:32;99692.25;;;8.49;nan
31225;BME280;17847;31.524;74.366;2024-01-06T05:09:01;99692.94;;;8.59;nan
31225;BME280;17847;31.524;74.366;2024-01-06T05:11:31;99691.91;;;8.52;nan
31225;BME280;17847;31.524;74.366;2024-01-06T05:14:00;99685.50;;;8.80;nan
31225;BME280;17847;31.524;74.366;2024-01-06T05:16:30;99695.28;;;8.88;nan
31225;BME280;17847;31.524;74.366;2024-01-06T05:18:59;99691.44;;;8.82;nan
31225;BME280;17847;31.524;74.366;2024-01-06T05:21:29;99689.34;;;8.94;nan
31225;BME280;17847;31.524;74.366;2024-01-06T05:23:59;99694.13;;;8.90;nan
31225;BME280;17847;31.524;74.366;2024-01-06T05:26:29;99687.53;;;8.94;nan
31225;BME280;17847;31.524;74.366;2024-01-06T05:28:58;99689.09;;;9.13;nan
31225;BME280;17847;31.524;74.366;2024-01-06T05:31:28;99682.91;;;8.88;nan
31225;BME280;17847;31.524;74.366;2024-01-06T05:33:57;99680.69;;;8.76;nan
31225;BME280;17847;31.524;74.366;2024-01-06T05:36:26;99678.56;;;8.79;nan
31225;BME280;17847;31.524;74.366;2024-01-06T05:38:56;99689.47;;;8.84;nan
31225;BME280;17847;31.524;74.366;2024-01-06T05:41:26;99682.44;;;8.93;nan
31225;BME280;17847;31.524;74.366;2024-01-06T05:43:55;99683.66;;;8.81;nan
31225;BME280;17847;31.524;74.366;2024-01-06T05:46:25;99679.59;;;8.94;nan
31225;BME280;17847;31.524;74.366;2024-01-06T05:48:54;99679.50;;;9.04;nan
31225;BME280;17847;31.524;74.366;2024-01-06T05:51:25;99680.44;;;8.95;nan
31225;BME280;17847;31.524;74.366;2024-01-06T05:53:54;99669.38;;;8.91;nan
31225;BME280;17847;31.524;74.366;2024-01-06T05:56:25;99662.22;;;9.18;nan
31225;BME280;17847;31.524;74.366;2024-01-06T05:58:55;99662.72;;;9.21;nan
31225;BME280;17847;31.524;74.366;2024-01-06T06:01:24;99663.50;;;9.14;nan
31225;BME280;17847;31.524;74.366;2024-01-06T06:03:54;99656.91;;;9.10;nan
31225;BME280;17847;31.524;74.366;2024-01-06T06:06:24;99655.94;;;9.19;nan
31225;BME280;17847;31.524;74.366;2024-01-06T06:08:54;99644.41;;;9.28;nan
31225;BME280;17847;31.524;74.366;2024-01-06T06:11:24;99646.72;;;9.39;nan
31225;BME280;17847;31.524;74.366;2024-01-06T06:13:53;99638.44;;;9.34;nan
31225;BME280;17847;31.524;74.366;2024-01-06T06:16:23;99635.66;;;9.43;nan
31225;BME280;17847;31.524;74.366;2024-01-06T06:18:52;99627.94;;;9.42;nan
31225;BME280;17847;31.524;74.366;2024-01-06T06:21:23;99635.84;;;9.42;nan
31225;BME280;17847;31.524;74.366;2024-01-06T06:23:52;99622.44;;;9.43;nan
31225;BME280;17847;31.524;74.366;2024-01-06T06:26:22;99625.59;;;9.39;nan
31225;BME280;17847;31.524;74.366;2024-01-06T06:28:52;99620.34;;;9.55;nan
31225;BME280;17847;31.524;74.366;2024-01-06T06:31:22;99610.56;;;9.39;nan
31225;BME280;17847;31.524;74.366;2024-01-06T06:33:51;99603.31;;;9.58;nan
31225;BME280;17847;31.524;74.366;2024-01-06T06:36:21;99610.25;;;9.67;nan
31225;BME280;17847;31.524;74.366;2024-01-06T06:38:51;99613.41;;;9.95;nan
31225;BME280;17847;31.524;74.366;2024-01-06T06:41:20;99611.28;;;9.90;nan
31225;BME280;17847;31.524;74.366;2024-01-06T06:43:49;99609.13;;;9.77;nan
31225;BME280;17847;31.524;74.366;2024-01-06T06:46:19;99602.66;;;9.72;nan
31225;BME280;17847;31.524;74.366;2024-01-06T06:48:48;99599.66;;;9.83;nan
31225;BME280;17847;31.524;74.366;2024-01-06T06:51:19;99596.19;;;9.82;nan
31225;BME280;17847;31.524;74.366;2024-01-06T06:53:53;99594.53;;;10.06;nan
31225;BME280;17847;31.524;74.366;2024-01-06T06:56:23;99585.94;;;9.87;nan
31225;BME280;17847;31.524;74.366;2024-01-06T06:58:53;99592.59;;;10.16;nan
31225;BME280;17847;31.524;74.366;2024-01-06T07:01:22;99590.25;;;10.13;nan
31225;BME280;17847;31.524;74.366;2024-01-06T07:03:52;99579.47;;;10.22;nan
31225;BME280;17847;31.524;74.366;2024-01-06T07:06:23;99578.63;;;10.14;nan
31225;BME280;17847;31.524;74.366;2024-01-06T07:08:52;99576.03;;;10.22;nan
31225;BME280;17847;31.524;74.366;2024-01-06T07:11:22;99571.34;;;10.48;nan
31225;BME280;17847;31.524;74.366;2024-01-06T07:13:52;99573.94;;;10.56;nan
31225;BME280;17847;31.524;74.366;2024-01-06T07:16:22;99570.16;;;10.51;nan
31225;BME280;17847;31.524;74.366;2024-01-06T07:18:52;99566.66;;;10.58;nan
31225;BME280;17847;31.524;74.366;2024-01-06T07:21:21;99565.00;;;10.57;nan
31225;BME280;17847;31.524;74.366;2024-01-06T07:23:52;99557.91;;;10.50;nan
31225;BME280;17847;31.524;74.366;2024-01-06T07:26:21;99557.78;;;10.43;nan
31225;BME280;17847;31.524;74.366;2024-01-06T07:28:51;99545.69;;;10.49;nan
31225;BME280;17847;31.524;74.366;2024-01-06T07:31:20;99541.41;;;10.31;nan
31225;BME280;17847;31.524;74.366;2024-01-06T07:33:50;99540.84;;;10.52;nan
31225;BME280;17847;31.524;74.366;2024-01-06T07:36:20;99540.16;;;10.66;nan
31225;BME280;17847;31.524;74.366;2024-01-06T07:38:50;99529.34;;;10.68;nan
31225;BME280;17847;31.524;74.366;2024-01-06T07:41:21;99534.38;;;10.55;nan
31225;BME280;17847;31.524;74.366;2024-01-06T07:43:51;99535.63;;;10.75;nan
31225;BME280;17847;31.524;74.366;2024-01-06T07:46:20;99520.91;;;10.72;nan
31225;BME280;17847;31.524;74.366;2024-01-06T07:48:49;99528.69;;;10.74;nan
31225;BME280;17847;31.524;74.366;2024-01-06T07:51:19;99522.63;;;10.57;nan
31225;BME280;17847;31.524;74.366;2024-01-06T07:53:48;99514.41;;;10.44;nan
31225;BME280;17847;31.524;74.366;2024-01-06T07:56:18;99518.22;;;10.42;nan
31225;BME280;17847;31.524;74.366;2024-01-06T07:58:47;99514.19;;;10.54;nan
31225;BME280;17847;31.524;74.366;2024-01-06T08:01:17;99519.09;;;10.18;nan
31225;BME280;17847;31.524;74.366;2024-01-06T08:03:46;99505.72;;;10.19;nan
31225;BME280;17847;31.524;74.366;2024-01-06T08:06:16;99503.66;;;10.38;nan
31225;BME280;17847;31.524;74.366;2024-01-06T08:08:45;99507.78;;;10.40;nan
31225;BME280;17847;31.524;74.366;2024-01-06T08:11:15;99503.66;;;10.38;nan
31225;BME280;17847;31.524;74.366;2024-01-06T08:13:44;99502.13;;;10.51;nan
31225;BME280;17847;31.524;74.366;2024-01-06T08:16:14;99501.91;;;10.61;nan
31225;BME280;17847;31.524;74.366;2024-01-06T08:18:43;99494.09;;;10.67;nan
31225;BME280;17847;31.524;74.366;2024-01-06T08:21:14;99496.28;;;10.64;nan
31225;BME280;17847;31.524;74.366;2024-01-06T08:23:43;99494.66;;;10.55;nan
31225;BME280;17847;31.524;74.366;2024-01-06T08:26:13;99493.16;;;10.60;nan
31225;BME280;17847;31.524;74.366;2024-01-06T08:28:42;99495.44;;;10.63;nan
31225;BME280;17847;31.524;74.366;2024-01-06T08:31:12;99481.88;;;10.66;nan
31225;BME280;17847;31.524;74.366;2024-01-06T08:33:41;99483.41;;;10.53;nan
31225;BME280;17847;31.524;74.366;2024-01-06T08:36:12;99479.63;;;10.78;nan
31225;BME280;17847;31.524;74.366;2024-01-06T08:38:42;99479.03;;;10.68;nan
31225;BME280;17847;31.524;74.366;2024-01-06T08:41:11;99477.09;;;10.54;nan
31225;BME280;17847;31.524;74.366;2024-01-06T08:43:41;99479.34;;;10.73;nan
31225;BME280;17847;31.524;74.366;2024-01-06T08:46:10;99476.38;;;10.68;nan
31225;BME280;17847;31.524;74.366;2024-01-06T08:48:40;99471.78;;;10.62;nan
31225;BME280;17847;31.524;74.366;2024-01-06T08:51:10;99476.56;;;10.66;nan
31225;BME280;17847;31.524;74.366;2024-01-06T08:53:40;99474.34;;;10.78;nan
31225;BME280;17847;31.524;74.366;2024-01-06T08:56:10;99467.44;;;10.69;nan
31225;BME280;17847;31.524;74.366;2024-01-06T08:58:39;99469.25;;;10.68;nan
31225;BME280;17847;31.524;74.366;2024-01-06T09:01:09;99465.97;;;10.66;nan
31225;BME280;17847;31.524;74.366;2024-01-06T09:03:38;99466.16;;;10.26;nan
31225;BME280;17847;31.524;74.366;2024-01-06T09:06:08;99459.56;;;10.06;nan
31225;BME280;17847;31.524;74.366;2024-01-06T09:08:37;99464.16;;;10.28;nan
31225;BME280;17847;31.524;74.366;2024-01-06T09:11:06;99462.50;;;10.27;nan
31225;BME280;17847;31.524;74.366;2024-01-06T09:13:36;99462.44;;;10.43;nan
31225;BME280;17847;31.524;74.366;2024-01-06T09:16:06;99455.13;;;10.53;nan
31225;BME280;17847;31.524;74.366;2024-01-06T09:18:36;99462.72;;;10.56;nan
31225;BME280;17847;31.524;74.366;2024-01-06T09:21:06;99453.75;;;10.26;nan
31225;BME280;17847;31.524;74.366;2024-01-06T09:23:35;99451.38;;;10.31;nan
31225;BME280;17847;31.524;74.366;2024-01-06T09:26:05;99446.34;;;10.45;nan
31225;BME280;17847;31.524;74.366;2024-01-06T09:28:34;99435.00;;;10.36;nan
31225;BME280;17847;31.524;74.366;2024-01-06T09:31:04;99448.47;;;10.26;nan
31225;BME280;17847;31.524;74.366;2024-01-06T09:33:33;99437.91;;;10.49;nan
31225;BME280;17847;31.524;74.366;2024-01-06T09:36:04;99443.34;;;10.56;nan
31225;BME280;17847;31.524;74.366;2024-01-06T09:38:33;99440.13;;;10.68;nan
31225;BME280;17847;31.524;74.366;2024-01-06T09:41:03;99444.00;;;10.80;nan
31225;BME280;17847;31.524;74.366;2024-01-06T09:43:32;99447.25;;;10.91;nan
31225;BME280;17847;31.524;74.366;2024-01-06T09:46:25;99438.63;;;10.97;nan
31225;BME280;17847;31.524;74.366;2024-01-06T09:48:56;99441.72;;;10.77;nan
31225;BME280;17847;31.524;74.366;2024-01-06T09:51:27;99439.84;;;10.24;nan
31225;BME280;17847;31.524;74.366;2024-01-06T09:53:59;99438.56;;;10.51;nan
31225;BME280;17847;31.524;74.366;2024-01-06T09:56:32;99436.84;;;10.66;nan
31225;BME280;17847;31.524;74.366;2024-01-06T09:59:02;99440.38;;;10.81;nan
31225;BME280;17847;31.524;74.366;2024-01-06T10:01:31;99440.59;;;10.95;nan
31225;BME280;17847;31.524;74.366;2024-01-06T10:04:01;99432.25;;;11.06;nan
31225;BME280;17847;31.524;74.366;2024-01-06T10:06:30;99433.78;;;11.00;nan
31225;BME280;17847;31.524;74.366;2024-01-06T10:08:59;99434.59;;;11.01;nan
31225;BME280;17847;31.524;74.366;2024-01-06T10:11:29;99426.59;;;10.86;nan
31225;BME280;17847;31.524;74.366;2024-01-06T10:13:59;99424.41;;;10.90;nan
31225;BME280;17847;31.524;74.366;2024-01-06T10:16:28;99419.00;;;10.83;nan
31225;BME280;17847;31.524;74.366;2024-01-06T10:18:58;99421.94;;;10.88;nan
31225;BME280;17847;31.524;74.366;2024-01-06T10:21:27;99419.47;;;10.87;nan
31225;BME280;17847;31.524;74.366;2024-01-06T10:23:57;99415.53;;;10.82;nan
31225;BME280;17847;31.524;74.366;2024-01-06T10:26:27;99419.63;;;10.85;nan
31225;BME280;17847;31.524;74.366;2024-01-06T10:28:58;99412.94;;;10.74;nan
31225;BME280;17847;31.524;74.366;2024-01-06T10:31:29;99416.28;;;10.91;nan
31225;BME280;17847;31.524;74.366;2024-01-06T10:34:00;99419.63;;;10.85;nan
31225;BME280;17847;31.524;74.366;2024-01-06T10:36:30;99417.72;;;10.79;nan
31225;BME280;17847;31.524;74.366;2024-01-06T10:39:00;99416.88;;;10.78;nan
31225;BME280;17847;31.524;74.366;2024-01-06T10:41:31;99423.69;;;10.73;nan
31225;BME280;17847;31.524;74.366;2024-01-06T10:44:01;99417.75;;;10.71;nan
31225;BME280;17847;31.524;74.366;2024-01-06T10:46:33;99417.28;;;10.67;nan
31225;BME280;17847;31.524;74.366;2024-01-06T10:49:05;99414.97;;;10.64;nan
31225;BME280;17847;31.524;74.366;2024-01-06T10:51:39;99419.63;;;10.62;nan
31225;BME280;17847;31.524;74.366;2024-01-06T10:54:09;99414.47;;;10.69;nan
31225;BME280;17847;31.524;74.366;2024-01-06T10:56:43;99411.81;;;10.69;nan
31225;BME280;17847;31.524;74.366;2024-01-06T10:59:13;99404.75;;;10.61;nan
31225;BME280;17847;31.524;74.366;2024-01-06T11:01:44;99402.25;;;10.60;nan
31225;BME280;17847;31.524;74.366;2024-01-06T11:04:15;99401.28;;;10.61;nan
31225;BME280;17847;31.524;74.366;2024-01-06T11:06:45;99402.56;;;10.65;nan
31225;BME280;17847;31.524;74.366;2024-01-06T11:09:21;99407.72;;;10.58;nan
31225;BME280;17847;31.524;74.366;2024-01-06T11:11:53;99398.78;;;10.59;nan
31225;BME280;17847;31.524;74.366;2024-01-06T11:14:27;99400.59;;;10.59;nan
31225;BME280;17847;31.524;74.366;2024-01-06T11:17:02;99393.06;;;10.48;nan
31225;BME280;17847;31.524;74.366;2024-01-06T11:22:21;99408.56;;;10.59;nan
31225;BME280;17847;31.524;74.366;2024-01-06T11:24:52;99401.78;;;10.56;nan
31225;BME280;17847;31.524;74.366;2024-01-06T11:27:24;99406.81;;;10.74;nan
31225;BME280;17847;31.524;74.366;2024-01-06T11:29:59;99407.69;;;10.66;nan
31225;BME280;17847;31.524;74.366;2024-01-06T11:32:39;99406.59;;;10.75;nan
31225;BME280;17847;31.524;74.366;2024-01-06T11:35:15;99413.78;;;10.67;nan
31225;BME280;17847;31.524;74.366;2024-01-06T11:40:30;99419.56;;;10.48;nan
31225;BME280;17847;31.524;74.366;2024-01-06T11:43:09;99422.06;;;10.41;nan
31225;BME280;17847;31.524;74.366;2024-01-06T11:45:41;99417.75;;;10.40;nan
31225;BME280;17847;31.524;74.366;2024-01-06T11:48:12;99408.50;;;10.36;nan
31225;BME280;17847;31.524;74.366;2024-01-06T11:50:42;99425.09;;;10.30;nan
31225;BME280;17847;31.524;74.366;2024-01-06T11:53:12;99417.22;;;10.22;nan
31225;BME280;17847;31.524;74.366;2024-01-06T11:55:41;99419.50;;;10.25;nan
31225;BME280;17847;31.524;74.366;2024-01-06T11:58:11;99421.22;;;10.41;nan
31225;BME280;17847;31.524;74.366;2024-01-06T12:00:41;99420.28;;;10.33;nan
31225;BME280;17847;31.524;74.366;2024-01-06T12:03:16;99426.16;;;10.21;nan
31225;BME280;17847;31.524;74.366;2024-01-06T12:05:45;99427.81;;;10.22;nan
31225;BME280;17847;31.524;74.366;2024-01-06T12:08:19;99426.16;;;10.05;nan
31225;BME280;17847;31.524;74.366;2024-01-06T12:10:49;99423.22;;;10.00;nan
31225;BME280;17847;31.524;74.366;2024-01-06T12:13:18;99422.88;;;10.03;nan
31225;BME280;17847;31.524;74.366;2024-01-06T12:15:47;99425.34;;;10.04;nan
31225;BME280;17847;31.524;74.366;2024-01-06T12:18:17;99417.63;;;9.95;nan
31225;BME280;17847;31.524;74.366;2024-01-06T12:20:47;99423.22;;;9.91;nan
31225;BME280;17847;31.524;74.366;2024-01-06T12:23:28;99417.16;;;9.75;nan
31225;BME280;17847;31.524;74.366;2024-01-06T12:26:00;99420.16;;;9.72;nan
31225;BME280;17847;31.524;74.366;2024-01-06T12:28:30;99425.09;;;9.75;nan
31225;BME280;17847;31.524;74.366;2024-01-06T12:30:59;99421.78;;;9.81;nan
31225;BME280;17847;31.524;74.366;2024-01-06T12:33:30;99425.78;;;9.77;nan
31225;BME280;17847;31.524;74.366;2024-01-06T12:36:01;99431.06;;;9.77;nan
31225;BME280;17847;31.524;74.366;2024-01-06T12:38:37;99431.88;;;9.85;nan
31225;BME280;17847;31.524;74.366;2024-01-06T12:41:07;99428.59;;;9.67;nan
31225;BME280;17847;31.524;74.366;2024-01-06T12:43:37;99435.88;;;9.65;nan
31225;BME280;17847;31.524;74.366;2024-01-06T12:46:06;99434.22;;;9.56;nan
31225;BME280;17847;31.524;74.366;2024-01-06T12:48:36;99434.56;;;9.53;nan
31225;BME280;17847;31.524;74.366;2024-01-06T12:51:06;99436.84;;;9.72;nan
31225;BME280;17847;31.524;74.366;2024-01-06T12:53:36;99432.41;;;9.57;nan
31225;BME280;17847;31.524;74.366;2024-01-06T12:56:06;99444.31;;;9.61;nan
31225;BME280;17847;31.524;74.366;2024-01-06T12:58:36;99438.38;;;9.59;nan
31225;BME280;17847;31.524;74.366;2024-01-06T13:01:05;99443.81;;;9.73;nan
31225;BME280;17847;31.524;74.366;2024-01-06T13:03:36;99439.31;;;9.74;nan
31225;BME280;17847;31.524;74.366;2024-01-06T13:06:05;99445.97;;;9.62;nan
31225;BME280;17847;31.524;74.366;2024-01-06T13:08:35;99438.19;;;9.68;nan
31225;BME280;17847;31.524;74.366;2024-01-06T13:11:04;99450.59;;;9.68;nan
31225;BME280;17847;31.524;74.366;2024-01-06T13:13:34;99442.16;;;9.64;nan
31225;BME280;17847;31.524;74.366;2024-01-06T13:16:04;99442.16;;;9.64;nan
31225;BME280;17847;31.524;74.366;2024-01-06T13:18:35;99440.84;;;9.68;nan
31225;BME280;17847;31.524;74.366;2024-01-06T13:21:04;99449.41;;;9.70;nan
31225;BME280;17847;31.524;74.366;2024-01-06T13:23:35;99452.25;;;9.69;nan
31225;BME280;17847;31.524;74.366;2024-01-06T13:26:04;99454.69;;;9.70;nan
31225;BME280;17847;31.524;74.366;2024-01-06T13:28:34;99454.38;;;9.65;nan
31225;BME280;17847;31.524;74.366;2024-01-06T13:31:03;99462.31;;;9.81;nan
31225;BME280;17847;31.524;74.366;2024-01-06T13:33:33;99461.81;;;9.78;nan
31225;BME280;17847;31.524;74.366;2024-01-06T13:36:03;99462.81;;;9.69;nan
31225;BME280;17847;31.524;74.366;2024-01-06T13:38:33;99466.97;;;9.63;nan